Time;durP1;ratioP1;P1;durP2;ratioP2;P2;SDS_P1;SDS_P2;PMS_P1;PMS_P2;Temp;Humidity;BMP_temperature;BMP_pressure;BME280_temperature;BME280_humidity;BME280_pressure;Samples;Min_cycle;Max_cycle;Signal;HPM_P1;HPM_P2
2023/05/20 00:01:16;;;;;;;;;;;;;;;26.97;42.18;94156.91;4990786;28;9113;-65
2023/05/20 00:03:42;;;;;;;;;;;;;;;26.96;42.07;94157.44;4976025;28;8739;-64
2023/05/20 00:06:08;;;;;;;;;;;;;;;26.94;42.45;94149.69;4968223;28;8727;-65
2023/05/20 00:08:34;;;;;;;;;;;;;;;26.92;42.53;94146.72;4970118;28;9446;-65
2023/05/20 00:11:14;;;;;;;;;;;;;;;26.93;42.19;94150.97;4967839;28;7233;-65
2023/05/20 00:13:43;;;;;;;;;;;;;;;26.94;42.11;94155.22;4973082;28;7124;-65
2023/05/20 00:16:09;;;;;;;;;;;;;;;26.91;42.20;94142.47;4986995;28;7047;-64
2023/05/20 00:18:35;;;;;;;;;;;;;;;26.94;42.43;94149.69;4984448;28;7244;-64
2023/05/20 00:21:04;;;;;;;;;;;;;;;26.94;42.58;94146.19;5028225;28;9138;-64
2023/05/20 00:23:42;;;;;;;;;;;;;;;26.93;42.25;94145.44;5026557;28;9467;-64
2023/05/20 00:26:41;;;;;;;;;;;;;;;26.90;42.50;94147.22;5041415;28;9035;-64
2023/05/20 00:29:07;;;;;;;;;;;;;;;26.91;41.48;94147.97;5029935;28;7051;-64
2023/05/20 00:31:39;;;;;;;;;;;;;;;26.89;42.41;94151.28;5034121;28;7431;-64
2023/05/20 00:34:06;;;;;;;;;;;;;;;26.87;42.28;94142.03;5037575;28;7032;-64
2023/05/20 00:36:32;;;;;;;;;;;;;;;26.87;42.43;94140.00;5040471;28;8961;-64
2023/05/20 00:39:00;;;;;;;;;;;;;;;26.88;42.31;94138.72;5031165;28;8732;-64
2023/05/20 00:41:26;;;;;;;;;;;;;;;26.87;42.35;94128.97;5042564;28;7065;-65
2023/05/20 00:44:02;;;;;;;;;;;;;;;26.88;42.15;94127.69;5045240;28;9303;-64
2023/05/20 00:46:31;;;;;;;;;;;;;;;26.86;42.22;94126.75;5034840;28;9094;-65
2023/05/20 00:49:18;;;;;;;;;;;;;;;26.88;42.39;94138.00;5031651;28;7542;-65
2023/05/20 00:51:55;;;;;;;;;;;;;;;26.87;42.31;94128.22;5035967;28;9056;-64
2023/05/20 00:54:35;;;;;;;;;;;;;;;26.82;42.48;94124.28;5027698;28;9124;-65
2023/05/20 01:00:45;;;;;;;;;;;;;;;26.86;42.41;94119.19;5042334;28;7273;-65
2023/05/20 01:03:29;;;;;;;;;;;;;;;26.85;42.32;94114.22;5026914;28;9111;-64
2023/05/20 01:06:09;;;;;;;;;;;;;;;26.83;41.82;94123.03;5033632;28;9018;-65
2023/05/20 01:08:40;;;;;;;;;;;;;;;26.84;42.28;94123.75;5028443;28;7259;-65
2023/05/20 01:11:31;;;;;;;;;;;;;;;26.82;42.61;94129.78;5039395;28;7318;-65
2023/05/20 01:14:12;;;;;;;;;;;;;;;26.83;42.23;94125.03;5027123;28;7279;-65
2023/05/20 01:17:11;;;;;;;;;;;;;;;26.81;42.32;94122.06;5035263;28;9391;-65
2023/05/20 01:19:48;;;;;;;;;;;;;;;26.80;42.75;94126.81;5026143;28;9243;-65
2023/05/20 01:22:31;;;;;;;;;;;;;;;26.79;42.45;94117.06;5046832;28;8571;-65
2023/05/20 01:25:06;;;;;;;;;;;;;;;26.78;42.42;94112.81;5039103;28;7234;-65
2023/05/20 01:27:57;;;;;;;;;;;;;;;26.79;42.46;94113.56;5038999;28;7283;-65
2023/05/20 01:30:54;;;;;;;;;;;;;;;26.78;42.49;94112.81;5036027;28;8919;-65
2023/05/20 01:33:27;;;;;;;;;;;;;;;26.77;42.33;94116.81;5045185;28;7037;-65
2023/05/20 01:35:55;;;;;;;;;;;;;;;26.76;42.45;94120.88;5054225;28;9487;-65
2023/05/20 01:38:59;;;;;;;;;;;;;;;26.76;42.34;94106.31;5042677;28;9335;-64
2023/05/20 01:41:46;;;;;;;;;;;;;;;26.76;42.33;94103.56;4991040;28;9087;-64
2023/05/20 01:44:21;;;;;;;;;;;;;;;26.76;42.40;94103.56;5011444;28;9048;-64
2023/05/20 01:46:50;;;;;;;;;;;;;;;26.74;42.63;94100.59;5013699;28;9448;-65
2023/05/20 01:49:35;;;;;;;;;;;;;;;26.75;42.27;94096.56;5002201;28;7063;-65
2023/05/20 01:52:14;;;;;;;;;;;;;;;26.74;42.29;94095.81;5009144;28;9537;-65
2023/05/20 01:54:50;;;;;;;;;;;;;;;26.73;42.43;94101.88;5007178;28;7215;-65
2023/05/20 01:57:26;;;;;;;;;;;;;;;26.72;42.22;94094.81;5007397;28;8809;-65
2023/05/20 01:59:53;;;;;;;;;;;;;;;26.72;42.72;94094.81;4986842;28;9144;-65
2023/05/20 02:02:56;;;;;;;;;;;;;;;26.71;42.44;94091.31;4995364;28;7030;-65
2023/05/20 02:05:37;;;;;;;;;;;;;;;26.68;42.41;94091.63;4933591;28;7562;-65
2023/05/20 02:08:11;;;;;;;;;;;;;;;26.70;42.19;94083.56;4946697;28;9031;-65
2023/05/20 02:10:47;;;;;;;;;;;;;;;26.66;42.37;94080.38;4941546;28;9214;-65
2023/05/20 02:13:22;;;;;;;;;;;;;;;26.68;42.12;94080.59;4946664;28;7188;-64
2023/05/20 02:16:15;;;;;;;;;;;;;;;26.68;42.59;94078.59;4965593;28;7333;-65
2023/05/20 02:18:47;;;;;;;;;;;;;;;26.67;42.72;94079.84;4976623;28;8779;-65
2023/05/20 02:21:56;;;;;;;;;;;;;;;26.68;42.16;94080.59;4980655;28;7053;-65
2023/05/20 02:24:38;;;;;;;;;;;;;;;26.67;42.07;94084.59;4987741;28;7223;-65
2023/05/20 02:27:16;;;;;;;;;;;;;;;26.64;42.11;94091.19;4968771;28;9059;-65
2023/05/20 02:29:44;;;;;;;;;;;;;;;26.65;42.87;94082.38;4969843;28;7588;-65
2023/05/20 02:32:26;;;;;;;;;;;;;;;26.63;42.62;94079.41;4971856;28;9334;-64
2023/05/20 02:34:54;;;;;;;;;;;;;;;26.63;42.33;94071.13;4990010;28;9398;-64
2023/05/20 02:37:30;;;;;;;;;;;;;;;26.63;42.44;94070.38;4973624;28;8095;-64
2023/05/20 02:39:57;;;;;;;;;;;;;;;26.64;42.71;94077.41;5026066;28;9170;-65
2023/05/20 02:42:30;;;;;;;;;;;;;;;26.63;42.68;94073.88;5039820;28;9037;-65
2023/05/20 02:44:59;;;;;;;;;;;;;;;26.61;42.58;94086.72;5029162;28;8394;-65
2023/05/20 02:47:26;;;;;;;;;;;;;;;26.58;42.27;94073.97;5037570;28;7299;-65
2023/05/20 02:50:05;;;;;;;;;;;;;;;26.60;43.00;94077.69;5050747;28;7289;-65
2023/05/20 02:52:31;;;;;;;;;;;;;;;26.56;42.96;94062.69;5026301;28;8862;-64
2023/05/20 02:55:11;;;;;;;;;;;;;;;26.57;42.96;94064.22;5049600;28;6976;-65
2023/05/20 02:57:37;;;;;;;;;;;;;;;26.59;42.99;94061.66;5033240;28;7036;-65
2023/05/20 03:00:12;;;;;;;;;;;;;;;26.58;42.66;94065.69;5034490;28;7023;-65
2023/05/20 03:06:19;;;;;;;;;;;;;;;26.57;43.17;94070.47;5040314;28;6808;-65
2023/05/20 03:09:18;;;;;;;;;;;;;;;26.58;42.60;94071.19;5048498;28;9112;-64
2023/05/20 03:12:15;;;;;;;;;;;;;;;26.57;42.05;94069.72;4955442;28;8862;-65
2023/05/20 03:14:45;;;;;;;;;;;;;;;26.53;42.88;94063.78;4954835;28;7718;-65
2023/05/20 03:17:21;;;;;;;;;;;;;;;26.51;42.73;94066.31;4954248;28;7038;-65
2023/05/20 03:20:15;;;;;;;;;;;;;;;26.53;42.72;94069.28;4946580;28;7118;-64
2023/05/20 03:22:57;;;;;;;;;;;;;;;26.51;42.76;94060.78;4973614;28;7057;-64
2023/05/20 03:25:56;;;;;;;;;;;;;;;26.55;42.53;94061.22;4972886;28;7229;-64
2023/05/20 03:28:24;;;;;;;;;;;;;;;26.51;42.90;94064.28;4948861;28;8833;-65
2023/05/20 03:30:53;;;;;;;;;;;;;;;26.50;42.99;94065.56;4949762;28;7267;-64
2023/05/20 03:33:28;;;;;;;;;;;;;;;26.50;42.80;94065.56;4943448;28;9262;-64
2023/05/20 03:36:33;;;;;;;;;;;;;;;26.50;42.49;94059.28;4933800;28;9036;-64
2023/05/20 03:39:01;;;;;;;;;;;;;;;26.50;42.96;94057.28;4944145;28;7045;-64
2023/05/20 03:41:27;;;;;;;;;;;;;;;26.51;42.59;94063.56;4943235;28;8693;-64
2023/05/20 03:44:03;;;;;;;;;;;;;;;26.49;42.95;94058.53;4936448;28;8974;-64
2023/05/20 03:46:56;;;;;;;;;;;;;;;26.46;42.35;94059.59;4934956;28;7055;-65
2023/05/20 03:49:42;;;;;;;;;;;;;;;26.48;43.13;94061.84;4975912;28;8999;-64
2023/05/20 03:52:10;;;;;;;;;;;;;;;26.41;43.04;94059.69;4985358;28;8408;-65
2023/05/20 03:54:36;;;;;;;;;;;;;;;26.43;42.84;94059.91;4981627;28;7033;-65
2023/05/20 03:57:04;;;;;;;;;;;;;;;26.43;42.54;94060.66;4963954;28;7222;-64
2023/05/20 03:59:30;;;;;;;;;;;;;;;26.43;42.99;94057.88;4965770;28;7313;-65
2023/05/20 04:01:58;;;;;;;;;;;;;;;26.42;43.00;94064.69;4964984;28;9431;-65
2023/05/20 04:04:26;;;;;;;;;;;;;;;26.43;42.69;94065.41;4986231;28;9861;-65
2023/05/20 04:06:53;;;;;;;;;;;;;;;26.44;42.61;94064.16;5027027;28;7259;-64
2023/05/20 04:09:21;;;;;;;;;;;;;;;26.43;43.17;94062.66;5037196;28;9024;-65
2023/05/20 04:11:53;;;;;;;;;;;;;;;26.43;42.89;94062.66;5047900;28;7117;-65
2023/05/20 04:14:59;;;;;;;;;;;;;;;26.42;43.12;94061.19;5033868;28;7044;-65
2023/05/20 04:17:39;;;;;;;;;;;;;;;26.42;42.41;94056.41;5004780;28;7205;-64
2023/05/20 04:20:06;;;;;;;;;;;;;;;26.42;43.01;94059.16;4992047;28;10024;-64
2023/05/20 04:22:38;;;;;;;;;;;;;;;26.42;42.69;94059.16;5009296;28;7508;-65
2023/05/20 04:25:19;;;;;;;;;;;;;;;26.42;42.37;94070.19;4995791;28;7233;-64
2023/05/20 04:27:59;;;;;;;;;;;;;;;26.42;42.89;94070.19;4989910;28;8711;-65
2023/05/20 04:30:41;;;;;;;;;;;;;;;26.42;42.50;94069.44;5018643;28;7657;-65
2023/05/20 04:33:10;;;;;;;;;;;;;;;26.36;42.99;94064.00;5008239;28;7191;-65
2023/05/20 04:35:47;;;;;;;;;;;;;;;26.38;42.31;94072.50;5004093;28;9081;-64
2023/05/20 04:38:37;;;;;;;;;;;;;;;26.38;42.65;94069.00;5010519;28;7107;-65
2023/05/20 04:41:05;;;;;;;;;;;;;;;26.35;42.78;94059.78;5008635;28;8869;-65
2023/05/20 04:44:23;;;;;;;;;;;;;;;26.36;42.77;94063.28;5009471;28;9396;-65
2023/05/20 04:46:50;;;;;;;;;;;;;;;26.35;42.84;94068.03;4934528;28;7274;-65
2023/05/20 04:49:56;;;;;;;;;;;;;;;26.35;43.39;94062.53;4969055;28;9589;-65
2023/05/20 04:52:33;;;;;;;;;;;;;;;26.34;42.82;94063.06;4989901;28;7214;-65
2023/05/20 04:55:00;;;;;;;;;;;;;;;26.35;42.89;94064.53;4973836;28;7101;-65
2023/05/20 04:57:26;;;;;;;;;;;;;;;26.32;42.65;94068.34;4972080;28;7244;-65
2023/05/20 04:59:57;;;;;;;;;;;;;;;26.32;43.27;94065.59;4978534;28;9462;-65
2023/05/20 05:02:26;;;;;;;;;;;;;;;26.33;43.41;94067.81;4960021;28;9112;-65
2023/05/20 05:05:08;;;;;;;;;;;;;;;26.35;42.45;94070.06;4986615;28;9296;-66
2023/05/20 05:07:40;;;;;;;;;;;;;;;26.32;42.61;94063.56;4967704;28;9157;-65
2023/05/20 05:10:06;;;;;;;;;;;;;;;26.32;42.87;94062.84;4973215;28;9145;-65
2023/05/20 05:12:47;;;;;;;;;;;;;;;26.33;43.03;94067.06;4968265;28;7819;-65
2023/05/20 05:15:22;;;;;;;;;;;;;;;26.35;43.08;94064.53;4975871;28;8749;-65
2023/05/20 05:17:53;;;;;;;;;;;;;;;26.33;42.72;94056.03;4975323;28;7067;-65
2023/05/20 05:20:19;;;;;;;;;;;;;;;26.32;43.23;94060.09;4991200;28;7463;-65
2023/05/20 05:22:45;;;;;;;;;;;;;;;26.32;43.42;94054.56;4986843;28;7111;-65
2023/05/20 05:25:12;;;;;;;;;;;;;;;26.32;43.00;94049.06;5034586;28;9490;-65
2023/05/20 05:27:40;;;;;;;;;;;;;;;26.32;42.70;94046.31;5038212;28;7260;-65
2023/05/20 05:30:40;;;;;;;;;;;;;;;26.31;42.91;94047.56;5035889;28;8897;-65
2023/05/20 05:33:36;;;;;;;;;;;;;;;26.29;43.38;94045.31;5054473;28;8170;-65
2023/05/20 05:36:19;;;;;;;;;;;;;;;26.28;43.05;94043.06;4993761;28;8076;-65
2023/05/20 05:38:58;;;;;;;;;;;;;;;26.30;43.09;94057.09;4983587;28;9295;-65
2023/05/20 05:41:44;;;;;;;;;;;;;;;26.30;42.65;94051.56;4993414;28;7404;-65
2023/05/20 05:44:47;;;;;;;;;;;;;;;26.29;42.92;94039.06;4989460;28;7105;-65
2023/05/20 05:47:28;;;;;;;;;;;;;;;26.28;42.87;94037.56;4929136;28;7430;-65
2023/05/20 05:50:20;;;;;;;;;;;;;;;26.30;43.17;94048.81;4920628;29;8247;-65
2023/05/20 05:53:19;;;;;;;;;;;;;;;26.31;42.89;94053.81;4924816;29;9051;-64
2023/05/20 05:59:40;;;;;;;;;;;;;;;26.29;42.59;94041.81;4897569;29;7058;-65
2023/05/20 06:02:44;;;;;;;;;;;;;;;26.27;43.12;94036.09;4878039;29;7073;-65
2023/05/20 06:05:44;;;;;;;;;;;;;;;26.26;43.30;94035.34;4886490;29;7213;-65
2023/05/20 06:08:10;;;;;;;;;;;;;;;26.28;42.90;94034.81;4892641;29;9406;-64
2023/05/20 06:11:16;;;;;;;;;;;;;;;26.29;43.02;94033.56;4880732;29;9311;-65
2023/05/20 06:13:51;;;;;;;;;;;;;;;26.28;43.39;94029.28;4918766;29;7536;-64
2023/05/20 06:16:39;;;;;;;;;;;;;;;26.27;43.14;94025.81;4923759;29;7293;-65
2023/05/20 06:19:08;;;;;;;;;;;;;;;26.27;43.55;94025.06;4929463;29;7178;-64
2023/05/20 06:21:47;;;;;;;;;;;;;;;26.27;43.56;94019.53;4965400;28;7011;-65
2023/05/20 06:24:25;;;;;;;;;;;;;;;26.28;43.34;94026.53;4983224;28;6953;-65
2023/05/20 06:27:17;;;;;;;;;;;;;;;26.28;43.41;94021.78;4987362;28;7069;-65
2023/05/20 06:30:19;;;;;;;;;;;;;;;26.29;43.53;94034.31;4974728;28;7118;-65
2023/05/20 06:32:52;;;;;;;;;;;;;;;26.26;42.95;94032.56;5006967;28;8999;-65
2023/05/20 06:35:36;;;;;;;;;;;;;;;26.27;43.20;94025.06;4994195;28;8730;-66
2023/05/20 06:38:04;;;;;;;;;;;;;;;26.28;42.58;94029.28;4996327;28;9506;-65
2023/05/20 06:41:02;;;;;;;;;;;;;;;26.28;43.08;94026.53;5009635;28;9098;-65
2023/05/20 06:43:42;;;;;;;;;;;;;;;26.30;43.18;94024.75;4932768;28;9342;-64
2023/05/20 06:46:08;;;;;;;;;;;;;;;26.28;43.06;94024.53;4963482;28;9021;-65
2023/05/20 06:48:50;;;;;;;;;;;;;;;26.30;43.53;94024.00;4946935;28;7189;-65
2023/05/20 06:51:36;;;;;;;;;;;;;;;26.29;43.05;94020.50;4952228;28;9372;-64
2023/05/20 06:54:17;;;;;;;;;;;;;;;26.30;42.93;94015.72;4937953;28;9161;-64
2023/05/20 06:56:54;;;;;;;;;;;;;;;26.31;42.91;94017.22;4938161;28;9249;-65
2023/05/20 06:59:57;;;;;;;;;;;;;;;26.31;42.96;94014.47;4951099;28;8748;-65
2023/05/20 07:02:33;;;;;;;;;;;;;;;26.29;43.18;94017.00;4925867;28;7024;-65
2023/05/20 07:05:30;;;;;;;;;;;;;;;26.30;42.94;94015.72;4952109;28;7052;-64
2023/05/20 07:08:21;;;;;;;;;;;;;;;26.28;43.73;94010.75;4896776;29;7112;-64
2023/05/20 07:10:48;;;;;;;;;;;;;;;26.31;42.71;94012.47;4899043;29;7019;-64
2023/05/20 07:13:24;;;;;;;;;;;;;;;26.33;43.51;94014.69;4931995;29;9160;-64
2023/05/20 07:15:51;;;;;;;;;;;;;;;26.36;43.05;94013.66;4905097;29;7007;-64
2023/05/20 07:18:20;;;;;;;;;;;;;;;26.34;42.98;94007.91;4915699;28;8168;-65
2023/05/20 07:20:58;;;;;;;;;;;;;;;26.35;43.44;94015.66;4977658;28;7052;-65
2023/05/20 07:23:37;;;;;;;;;;;;;;;26.37;43.01;94004.09;5003482;28;7349;-65
2023/05/20 07:26:03;;;;;;;;;;;;;;;26.35;43.38;94001.13;4982141;28;7432;-65
2023/05/20 07:28:39;;;;;;;;;;;;;;;26.35;42.87;94009.38;4992226;28;8830;-64
2023/05/20 07:31:53;;;;;;;;;;;;;;;26.37;43.16;94002.09;4982796;28;7272;-66
2023/05/20 07:34:44;;;;;;;;;;;;;;;26.36;43.50;94008.84;5006075;28;7237;-66
2023/05/20 07:37:42;;;;;;;;;;;;;;;26.32;42.71;94002.19;5009209;28;8547;-66
2023/05/20 07:40:14;;;;;;;;;;;;;;;26.34;42.63;93996.88;4979044;28;9329;-66
2023/05/20 07:42:58;;;;;;;;;;;;;;;26.40;42.73;94000.28;4959532;28;9018;-66
2023/05/20 07:46:08;;;;;;;;;;;;;;;26.40;42.30;93992.03;5007637;28;9171;-66
2023/05/20 07:48:44;;;;;;;;;;;;;;;26.34;42.44;93992.09;4981627;28;9088;-66
2023/05/20 07:51:27;;;;;;;;;;;;;;;26.34;42.14;93999.66;5008033;28;7045;-66
2023/05/20 07:53:55;;;;;;;;;;;;;;;26.28;42.72;93999.72;4994141;28;9164;-66
2023/05/20 07:56:40;;;;;;;;;;;;;;;26.29;42.58;93997.72;4986301;28;7567;-66
2023/05/20 07:59:33;;;;;;;;;;;;;;;26.30;43.02;93990.91;5008751;28;7250;-66
2023/05/20 08:02:31;;;;;;;;;;;;;;;26.31;42.85;93992.41;4994679;28;9086;-66
2023/05/20 08:05:21;;;;;;;;;;;;;;;26.31;42.83;93992.41;5007335;28;7270;-66
2023/05/20 08:07:55;;;;;;;;;;;;;;;26.35;43.01;93992.84;5006964;28;7272;-66
2023/05/20 08:10:21;;;;;;;;;;;;;;;26.33;42.24;93985.09;5005150;28;7363;-66
2023/05/20 08:12:58;;;;;;;;;;;;;;;26.30;43.00;93977.88;4990394;28;7041;-65
2023/05/20 08:15:25;;;;;;;;;;;;;;;26.28;43.04;93982.41;4998889;28;7523;-65
2023/05/20 08:17:52;;;;;;;;;;;;;;;26.28;42.41;93974.16;5023227;28;9117;-66
2023/05/20 08:20:19;;;;;;;;;;;;;;;26.27;42.84;93980.94;5024332;28;7005;-65
2023/05/20 08:23:21;;;;;;;;;;;;;;;26.31;42.20;93984.13;5017147;28;9130;-65
2023/05/20 08:25:51;;;;;;;;;;;;;;;26.28;42.74;93991.44;4984291;28;7049;-65
2023/05/20 08:28:22;;;;;;;;;;;;;;;26.29;42.22;93992.94;4988845;28;7092;-65
2023/05/20 08:30:57;;;;;;;;;;;;;;;26.29;42.53;93978.41;4987808;28;9023;-65
2023/05/20 08:33:42;;;;;;;;;;;;;;;26.31;42.84;93975.88;4990529;28;7015;-65
2023/05/20 08:36:11;;;;;;;;;;;;;;;26.30;42.55;93972.34;4983617;28;7327;-65
2023/05/20 08:38:36;;;;;;;;;;;;;;;26.34;42.54;93974.81;4979126;28;7746;-65
2023/05/20 08:41:11;;;;;;;;;;;;;;;26.36;42.12;93972.28;4975047;28;7671;-65
2023/05/20 08:43:37;;;;;;;;;;;;;;;26.39;42.49;93985.75;4975923;28;9148;-65
2023/05/20 08:46:20;;;;;;;;;;;;;;;26.39;42.90;93980.25;4988022;28;7103;-66
2023/05/20 08:48:49;;;;;;;;;;;;;;;26.38;42.55;93975.25;4991314;28;7011;-65
2023/05/20 08:51:48;;;;;;;;;;;;;;;26.39;42.25;93982.25;4982270;28;8952;-66
2023/05/20 08:54:26;;;;;;;;;;;;;;;26.39;42.75;93971.22;4973985;28;7610;-65
2023/05/20 08:56:54;;;;;;;;;;;;;;;26.39;42.87;93971.22;4978570;28;7274;-66
2023/05/20 08:59:22;;;;;;;;;;;;;;;26.40;42.16;93970.72;5010333;28;9141;-66
2023/05/20 09:01:55;;;;;;;;;;;;;;;26.40;42.85;93965.19;5025291;28;7717;-66
2023/05/20 09:08:29;;;;;;;;;;;;;;;26.39;42.63;93971.22;5049439;28;8953;-64
2023/05/20 09:10:56;;;;;;;;;;;;;;;26.38;42.89;93961.47;5027512;28;7280;-64
2023/05/20 09:13:22;;;;;;;;;;;;;;;26.35;43.07;93970.78;5045692;28;7470;-63
2023/05/20 09:16:04;;;;;;;;;;;;;;;26.30;42.62;93966.09;5027372;28;9266;-64
2023/05/20 09:18:38;;;;;;;;;;;;;;;26.32;42.58;93964.31;5041347;28;8759;-63
2023/05/20 09:21:11;;;;;;;;;;;;;;;26.31;42.72;93970.34;5045777;28;7221;-64
2023/05/20 09:23:46;;;;;;;;;;;;;;;26.35;43.02;93970.78;5031094;28;7366;-64
2023/05/20 09:26:39;;;;;;;;;;;;;;;26.36;42.57;93972.28;5044014;28;7474;-64
2023/05/20 09:29:15;;;;;;;;;;;;;;;26.37;42.19;93974.50;5047616;28;8929;-65
2023/05/20 09:31:44;;;;;;;;;;;;;;;26.36;42.75;93972.28;5024600;28;9321;-65
2023/05/20 09:34:42;;;;;;;;;;;;;;;26.33;43.23;93974.06;5027549;28;8987;-65
2023/05/20 09:37:18;;;;;;;;;;;;;;;26.33;43.09;93965.06;5026761;28;8710;-64
2023/05/20 09:39:55;;;;;;;;;;;;;;;26.33;43.22;93967.81;5026631;28;7016;-64
2023/05/20 09:42:25;;;;;;;;;;;;;;;26.32;43.31;93963.59;5019168;28;9163;-64
2023/05/20 09:44:56;;;;;;;;;;;;;;;26.30;43.22;93963.34;5022201;28;7441;-65
2023/05/20 09:47:55;;;;;;;;;;;;;;;26.31;42.73;93975.88;5012703;28;7092;-64
2023/05/20 09:50:47;;;;;;;;;;;;;;;26.31;43.57;93964.84;5026919;28;7302;-64
2023/05/20 09:53:29;;;;;;;;;;;;;;;26.29;44.01;93954.34;5031965;28;7030;-65
2023/05/20 09:56:09;;;;;;;;;;;;;;;26.33;43.40;93967.81;5030282;28;9578;-64
2023/05/20 09:58:44;;;;;;;;;;;;;;;26.32;43.73;93964.31;5028266;28;9113;-65
2023/05/20 10:01:12;;;;;;;;;;;;;;;26.34;43.72;93967.28;5033323;28;7245;-65
2023/05/20 10:03:41;;;;;;;;;;;;;;;26.33;44.75;93970.56;5032033;28;7253;-65
2023/05/20 10:06:45;;;;;;;;;;;;;;;26.34;44.49;93975.56;5039171;28;9344;-65
2023/05/20 10:09:46;;;;;;;;;;;;;;;26.38;44.13;93964.22;5042067;28;9284;-64
2023/05/20 10:12:33;;;;;;;;;;;;;;;26.39;44.43;93960.19;4968863;28;8133;-64
2023/05/20 10:15:17;;;;;;;;;;;;;;;26.40;43.96;93965.19;4970082;28;9438;-65
2023/05/20 10:17:57;;;;;;;;;;;;;;;26.40;44.62;93964.44;4954192;28;8686;-64
2023/05/20 10:20:57;;;;;;;;;;;;;;;26.39;44.34;93962.94;4969720;28;7466;-64
2023/05/20 10:23:38;;;;;;;;;;;;;;;26.38;44.23;93958.72;4954566;28;7298;-64
2023/05/20 10:26:14;;;;;;;;;;;;;;;26.40;43.91;93956.16;4955748;28;8927;-64
2023/05/20 10:28:50;;;;;;;;;;;;;;;26.39;43.99;93954.69;4940561;28;7232;-64
2023/05/20 10:31:46;;;;;;;;;;;;;;;26.39;43.98;93954.69;4956965;28;7069;-64
2023/05/20 10:34:23;;;;;;;;;;;;;;;26.38;43.52;93956.69;4944521;28;7142;-64
2023/05/20 10:36:59;;;;;;;;;;;;;;;26.39;43.44;93952.66;4973475;28;9740;-64
2023/05/20 10:39:33;;;;;;;;;;;;;;;26.38;43.45;93950.44;4972748;28;9028;-64
2023/05/20 10:42:15;;;;;;;;;;;;;;;26.38;43.91;93942.91;4950534;28;6997;-64
2023/05/20 10:44:51;;;;;;;;;;;;;;;26.38;43.72;93950.44;4963235;28;6967;-64
2023/05/20 10:48:12;;;;;;;;;;;;;;;26.39;43.90;93957.44;5038476;28;6863;-64
2023/05/20 10:50:55;;;;;;;;;;;;;;;26.41;43.75;93946.63;5048062;28;9071;-64
2023/05/20 10:53:52;;;;;;;;;;;;;;;26.44;43.63;93945.56;5047774;28;7327;-64
2023/05/20 10:56:27;;;;;;;;;;;;;;;26.43;44.21;93938.56;4989104;28;9062;-65
2023/05/20 10:59:09;;;;;;;;;;;;;;;26.44;43.94;93934.53;4983888;28;7263;-64
2023/05/20 11:02:14;;;;;;;;;;;;;;;26.46;43.82;93943.03;4984689;28;7365;-65
2023/05/20 11:04:51;;;;;;;;;;;;;;;26.45;43.77;93947.78;4974636;28;7237;-64
2023/05/20 11:07:59;;;;;;;;;;;;;;;26.47;43.14;93944.53;4981417;28;9018;-64
2023/05/20 11:10:25;;;;;;;;;;;;;;;26.47;43.44;93945.25;4949697;28;9018;-64
2023/05/20 11:13:23;;;;;;;;;;;;;;;26.51;43.23;93942.19;4944264;28;9125;-65
2023/05/20 11:16:21;;;;;;;;;;;;;;;26.51;43.29;93939.44;4938186;28;7317;-64
2023/05/20 11:19:41;;;;;;;;;;;;;;;26.50;43.45;93946.22;4939867;28;9149;-64
2023/05/20 11:22:33;;;;;;;;;;;;;;;26.51;43.62;93934.66;4949521;28;7148;-64
2023/05/20 11:25:09;;;;;;;;;;;;;;;26.50;43.38;93935.94;4946370;28;9164;-65
2023/05/20 11:27:50;;;;;;;;;;;;;;;26.47;43.81;93933.50;4924041;28;9370;-63
2023/05/20 11:30:19;;;;;;;;;;;;;;;26.48;43.45;93937.72;4938956;28;7272;-64
2023/05/20 11:33:00;;;;;;;;;;;;;;;26.50;42.97;93937.94;4952522;28;8992;-64
2023/05/20 11:35:29;;;;;;;;;;;;;;;26.45;43.97;93942.28;4962605;28;9049;-64
2023/05/20 11:38:10;;;;;;;;;;;;;;;26.50;43.66;93932.44;4957559;28;9072;-65
2023/05/20 11:40:56;;;;;;;;;;;;;;;26.48;44.03;93937.72;4959282;28;7128;-65
2023/05/20 11:43:32;;;;;;;;;;;;;;;26.50;43.90;93940.69;4966990;28;9053;-65
2023/05/20 11:46:25;;;;;;;;;;;;;;;26.50;43.44;93937.94;5034464;28;8756;-65
2023/05/20 11:49:20;;;;;;;;;;;;;;;26.46;44.05;93930.00;5031993;28;8940;-65
2023/05/20 11:51:56;;;;;;;;;;;;;;;26.52;43.80;93930.63;5047845;28;9155;-65
2023/05/20 11:54:36;;;;;;;;;;;;;;;26.54;43.29;93932.84;5034247;28;8608;-65
2023/05/20 11:57:13;;;;;;;;;;;;;;;26.52;43.49;93921.59;5045494;28;7218;-65
2023/05/20 11:59:39;;;;;;;;;;;;;;;26.54;43.43;93919.81;5029689;28;7001;-65
2023/05/20 12:02:14;;;;;;;;;;;;;;;26.54;43.32;93922.56;5023021;28;8308;-65
2023/05/20 12:04:39;;;;;;;;;;;;;;;26.54;43.50;93925.34;5040544;28;9382;-65
2023/05/20 12:07:08;;;;;;;;;;;;;;;26.52;43.68;93916.84;5038825;28;9144;-65
2023/05/20 12:09:43;;;;;;;;;;;;;;;26.57;43.81;93918.03;5038594;28;7296;-64
2023/05/20 12:12:12;;;;;;;;;;;;;;;26.56;44.47;93919.28;5035515;28;7285;-64
2023/05/20 12:15:02;;;;;;;;;;;;;;;26.55;44.27;93912.28;5042875;28;9053;-64
2023/05/20 12:17:49;;;;;;;;;;;;;;;26.57;44.14;93916.00;5031080;28;9062;-64
2023/05/20 12:20:26;;;;;;;;;;;;;;;26.59;44.00;93907.19;5020112;28;7152;-64
2023/05/20 12:23:07;;;;;;;;;;;;;;;26.61;44.23;93910.16;5043803;28;7302;-64
2023/05/20 12:25:36;;;;;;;;;;;;;;;26.62;44.56;93911.66;5037925;28;8661;-64
2023/05/20 12:28:06;;;;;;;;;;;;;;;26.63;44.37;93908.38;5022611;28;7022;-64
2023/05/20 12:30:33;;;;;;;;;;;;;;;26.68;44.49;93909.53;5041351;28;7022;-65
2023/05/20 12:32:59;;;;;;;;;;;;;;;26.70;43.79;93912.53;5034643;28;9352;-65
2023/05/20 12:35:45;;;;;;;;;;;;;;;26.73;43.87;93903.94;5031985;28;7353;-65
2023/05/20 12:38:19;;;;;;;;;;;;;;;26.71;44.32;93900.94;5016350;28;7446;-65
2023/05/20 12:40:58;;;;;;;;;;;;;;;26.72;44.29;93904.44;5039271;28;9180;-65
2023/05/20 12:43:36;;;;;;;;;;;;;;;26.74;44.25;93904.69;5034745;28;7455;-65
2023/05/20 12:46:39;;;;;;;;;;;;;;;26.73;44.01;93903.22;5034717;28;8722;-65
2023/05/20 12:49:06;;;;;;;;;;;;;;;26.73;44.17;93892.91;4959237;28;7420;-66
2023/05/20 12:52:27;;;;;;;;;;;;;;;26.74;43.69;93897.16;4957855;28;7082;-66
2023/05/20 12:54:54;;;;;;;;;;;;;;;26.69;44.06;93897.97;4884453;29;9128;-66
2023/05/20 12:57:53;;;;;;;;;;;;;;;26.69;43.93;93902.75;4872432;29;9347;-65
2023/05/20 13:00:33;;;;;;;;;;;;;;;26.70;43.80;93907.00;4857569;29;7656;-65
2023/05/20 13:03:17;;;;;;;;;;;;;;;26.66;43.63;93898.31;4857600;29;7022;-64
2023/05/20 13:05:47;;;;;;;;;;;;;;;26.71;43.34;93902.94;4855852;29;7066;-64
2023/05/20 13:08:14;;;;;;;;;;;;;;;26.67;42.84;93900.53;4864038;29;7270;-65
2023/05/20 13:10:52;;;;;;;;;;;;;;;26.70;43.10;93907.00;4844206;29;8947;-65
2023/05/20 13:13:27;;;;;;;;;;;;;;;26.72;43.20;93907.22;4857585;29;7199;-65
2023/05/20 13:16:22;;;;;;;;;;;;;;;26.71;43.10;93908.47;4861465;29;9042;-65
2023/05/20 13:19:03;;;;;;;;;;;;;;;26.69;43.19;93902.75;4841031;29;9052;-65
2023/05/20 13:21:38;;;;;;;;;;;;;;;26.69;43.61;93911.03;4859953;29;9506;-65
2023/05/20 13:24:17;;;;;;;;;;;;;;;26.68;43.44;93912.31;4895804;29;8920;-65
2023/05/20 13:26:53;;;;;;;;;;;;;;;26.67;43.29;93908.03;4891491;29;9091;-65
2023/05/20 13:29:37;;;;;;;;;;;;;;;26.67;43.39;93903.28;4936733;28;7463;-65
2023/05/20 13:32:18;;;;;;;;;;;;;;;26.67;43.78;93905.28;4953430;28;9082;-65
2023/05/20 13:34:44;;;;;;;;;;;;;;;26.65;43.56;93903.06;4954893;28;9385;-65
2023/05/20 13:37:16;;;;;;;;;;;;;;;26.64;43.66;93892.56;5018266;28;8970;-65
2023/05/20 13:39:50;;;;;;;;;;;;;;;26.65;43.41;93905.06;5022634;28;7106;-65
2023/05/20 13:42:24;;;;;;;;;;;;;;;26.67;43.43;93902.53;5043232;28;7300;-65
2023/05/20 13:45:05;;;;;;;;;;;;;;;26.67;43.52;93897.00;5038064;28;7128;-65
2023/05/20 13:47:44;;;;;;;;;;;;;;;26.67;43.48;93900.53;5027862;28;8972;-65
2023/05/20 13:50:26;;;;;;;;;;;;;;;26.67;43.59;93897.00;5026794;28;9010;-65
2023/05/20 13:52:57;;;;;;;;;;;;;;;26.65;43.51;93899.56;5048581;28;7373;-65
2023/05/20 13:55:52;;;;;;;;;;;;;;;26.65;43.67;93899.56;5035782;28;8709;-65
2023/05/20 13:58:31;;;;;;;;;;;;;;;26.64;44.12;93903.59;4971823;28;7317;-65
2023/05/20 14:01:33;;;;;;;;;;;;;;;26.66;43.40;93903.81;4971924;28;7068;-65
2023/05/20 14:04:12;;;;;;;;;;;;;;;26.61;43.76;93902.66;4950212;28;9027;-65
2023/05/20 14:06:56;;;;;;;;;;;;;;;26.64;44.01;93911.88;4944894;28;9060;-65
2023/05/20 14:09:35;;;;;;;;;;;;;;;26.63;43.73;93907.63;4946891;28;8781;-65
2023/05/20 14:12:01;;;;;;;;;;;;;;;26.63;43.85;93902.09;4939202;28;7265;-65
2023/05/20 14:15:05;;;;;;;;;;;;;;;26.64;43.81;93903.59;4940680;28;7301;-65
2023/05/20 14:17:57;;;;;;;;;;;;;;;26.64;44.10;93900.84;4924238;29;9689;-64